createdAt,value
2024-05-09T00:01:40.282Z,0.80
2024-05-09T00:04:10.637Z,0.80
2024-05-09T00:06:40.947Z,0.93
2024-05-09T00:09:11.184Z,0.90
2024-05-09T00:11:41.518Z,1.00
2024-05-09T00:14:14.491Z,0.80
2024-05-09T00:16:44.732Z,0.77
2024-05-09T00:19:15.156Z,0.90
2024-05-09T00:21:45.729Z,0.80
2024-05-09T00:24:15.966Z,0.73
2024-05-09T00:26:46.156Z,0.90
2024-05-09T00:29:19.077Z,0.70
2024-05-09T00:31:49.501Z,0.80
2024-05-09T00:34:20.465Z,0.90
2024-05-09T00:36:50.718Z,0.80
2024-05-09T00:39:21.179Z,0.80
2024-05-09T00:41:51.392Z,0.70
2024-05-09T00:44:24.312Z,0.95
2024-05-09T00:46:56.315Z,0.90
2024-05-09T00:49:28.048Z,0.80
2024-05-09T00:51:59.409Z,0.90
2024-05-09T00:54:29.750Z,1.00
2024-05-09T00:57:00.022Z,0.80
2024-05-09T00:59:33.580Z,0.90
2024-05-09T01:02:04.122Z,0.70
2024-05-09T01:04:34.572Z,0.70
2024-05-09T01:07:04.822Z,0.80
2024-05-09T01:09:35.052Z,0.80
2024-05-09T01:12:05.352Z,0.82
2024-05-09T01:14:40.125Z,0.77
2024-05-09T01:17:10.467Z,0.85
2024-05-09T01:19:40.815Z,0.90
2024-05-09T01:22:10.964Z,0.80
2024-05-09T01:24:43.844Z,0.90
2024-05-09T01:27:14.234Z,0.90
2024-05-09T01:29:44.642Z,0.80
2024-05-09T01:32:15.154Z,0.80
2024-05-09T01:34:45.648Z,0.70
2024-05-09T01:37:16.110Z,0.80
2024-05-09T01:39:49.160Z,1.00
2024-05-09T01:42:19.588Z,0.65
2024-05-09T01:44:50.009Z,0.75
2024-05-09T01:47:20.606Z,0.80
2024-05-09T01:49:51.208Z,1.02
2024-05-09T01:52:21.653Z,0.90
2024-05-09T01:54:54.692Z,0.82
2024-05-09T01:57:25.048Z,0.98
2024-05-09T01:59:55.406Z,0.80
2024-05-09T02:02:25.736Z,1.10
2024-05-09T02:04:56.114Z,1.08
2024-05-09T02:07:26.529Z,0.75
2024-05-09T02:09:59.358Z,0.80
2024-05-09T02:12:29.699Z,1.10
2024-05-09T02:15:00.496Z,0.80
2024-05-09T02:17:31.074Z,0.80
2024-05-09T02:20:01.494Z,0.75
2024-05-09T02:22:32.152Z,0.80
2024-05-09T02:25:05.365Z,1.00
2024-05-09T02:27:35.546Z,0.70
2024-05-09T02:30:12.276Z,0.73
2024-05-09T02:32:49.214Z,0.90
2024-05-09T02:35:19.793Z,0.60
2024-05-09T02:37:47.622Z,0.75
2024-05-09T02:40:28.369Z,1.00
2024-05-09T02:43:04.387Z,0.90
2024-05-09T02:45:32.176Z,1.00
2024-05-09T02:48:02.931Z,1.02
2024-05-09T02:50:37.783Z,0.98
2024-05-09T02:53:10.417Z,1.23
2024-05-09T02:55:41.712Z,1.00
2024-05-09T02:58:12.614Z,1.17
2024-05-09T03:00:42.418Z,1.00
2024-05-09T03:03:15.475Z,0.90
2024-05-09T03:05:44.248Z,1.17
2024-05-09T03:08:15.200Z,0.80
2024-05-09T03:10:45.984Z,1.00
2024-05-09T03:13:18.532Z,0.95
2024-05-09T03:15:46.267Z,0.80
2024-05-09T03:18:16.840Z,0.90
2024-05-09T03:20:45.008Z,0.90
2024-05-09T03:23:15.521Z,0.80
2024-05-09T03:25:46.173Z,0.70
2024-05-09T03:28:16.602Z,0.90
2024-05-09T03:30:44.295Z,0.95
2024-05-09T03:33:15.717Z,0.90
2024-05-09T03:35:44.348Z,1.00
2024-05-09T03:38:15.008Z,0.80
2024-05-09T03:40:51.152Z,0.70
2024-05-09T03:43:22.000Z,0.80
2024-05-09T03:45:50.438Z,0.85
2024-05-09T03:48:21.250Z,0.80
2024-05-09T03:50:49.374Z,0.88
2024-05-09T03:53:20.082Z,1.00
2024-05-09T03:55:50.640Z,0.90
2024-05-09T03:58:21.056Z,0.90
2024-05-09T04:00:49.047Z,0.88
2024-05-09T04:03:19.822Z,0.70
2024-05-09T04:05:47.817Z,0.95
2024-05-09T04:08:18.432Z,0.93
2024-05-09T04:10:46.637Z,0.93
2024-05-09T04:13:19.675Z,0.82
2024-05-09T04:15:47.517Z,0.80
2024-05-09T04:18:18.075Z,0.82
2024-05-09T04:20:46.390Z,0.93
2024-05-09T04:23:17.204Z,0.95
2024-05-09T04:25:45.871Z,1.00
2024-05-09T04:28:19.225Z,1.00
2024-05-09T04:30:46.986Z,0.85
2024-05-09T04:33:20.211Z,1.10
2024-05-09T04:35:49.662Z,0.90
2024-05-09T04:38:20.205Z,1.00
2024-05-09T04:40:48.031Z,0.90
2024-05-09T04:43:21.890Z,1.00
2024-05-09T04:45:49.619Z,1.10
2024-05-09T04:48:20.203Z,1.10
2024-05-09T04:50:48.219Z,1.10
2024-05-09T04:53:19.848Z,1.00
2024-05-09T04:55:47.775Z,0.98
2024-05-09T04:58:20.921Z,1.20
2024-05-09T05:00:48.704Z,1.10
2024-05-09T05:03:19.214Z,1.00
2024-05-09T05:05:47.136Z,0.93
2024-05-09T05:08:18.623Z,0.90
2024-05-09T05:10:48.099Z,0.77
2024-05-09T05:13:25.323Z,1.02
2024-05-09T05:15:57.700Z,1.10
2024-05-09T05:18:26.570Z,1.02
2024-05-09T05:20:57.288Z,1.30
2024-05-09T05:23:25.354Z,1.30
2024-05-09T05:25:56.003Z,1.20
2024-05-09T05:28:26.302Z,1.40
2024-05-09T05:30:58.650Z,1.70
2024-05-09T05:33:26.658Z,1.48
2024-05-09T05:35:57.356Z,1.50
2024-05-09T05:38:28.148Z,1.15
2024-05-09T05:40:58.968Z,1.30
2024-05-09T05:43:29.698Z,1.15
2024-05-09T05:45:59.910Z,1.10
2024-05-09T05:48:27.786Z,1.20
2024-05-09T05:50:59.439Z,1.23
2024-05-09T05:53:28.652Z,1.20
2024-05-09T05:55:58.980Z,1.20
2024-05-09T05:58:29.221Z,1.10
2024-05-09T06:00:59.424Z,1.00
2024-05-09T06:03:28.697Z,1.10
2024-05-09T06:05:59.092Z,1.20
2024-05-09T06:08:30.178Z,1.20
2024-05-09T06:11:00.795Z,1.02
2024-05-09T06:13:31.105Z,1.02
2024-05-09T06:16:02.495Z,1.10
2024-05-09T06:18:30.329Z,1.10
2024-05-09T06:21:00.689Z,1.10
2024-05-09T06:23:28.379Z,1.13
2024-05-09T06:25:58.623Z,1.30
2024-05-09T06:28:26.237Z,1.17
2024-05-09T06:30:59.419Z,0.90
2024-05-09T06:33:27.113Z,1.20
2024-05-09T06:35:59.539Z,1.00
2024-05-09T06:38:27.092Z,1.10
2024-05-09T06:40:57.665Z,1.20
2024-05-09T06:43:25.394Z,1.20
2024-05-09T06:45:55.586Z,1.10
2024-05-09T06:48:26.002Z,1.30
2024-05-09T06:50:56.832Z,1.50
2024-05-09T06:53:24.549Z,1.40
2024-05-09T06:55:55.045Z,1.33
2024-05-09T06:58:22.627Z,1.20
2024-05-09T07:00:52.945Z,1.23
2024-05-09T07:03:20.688Z,1.23
2024-05-09T07:05:53.656Z,1.50
2024-05-09T07:08:21.316Z,1.40
2024-05-09T07:10:51.649Z,1.30
2024-05-09T07:13:19.304Z,1.63
2024-05-09T07:15:49.525Z,1.40
2024-05-09T07:18:18.649Z,1.38
2024-05-09T07:20:50.607Z,1.33
2024-05-09T07:23:21.267Z,1.40
2024-05-09T07:25:51.647Z,1.23
2024-05-09T07:28:19.908Z,1.30
2024-05-09T07:30:50.332Z,1.20
2024-05-09T07:33:18.374Z,1.35
2024-05-09T07:35:49.174Z,1.40
2024-05-09T07:38:16.894Z,1.23
2024-05-09T07:40:49.827Z,1.60
2024-05-09T07:43:17.484Z,1.25
2024-05-09T07:45:53.452Z,1.50
2024-05-09T07:53:39.904Z,1.40
2024-05-09T07:56:18.935Z,1.55
2024-05-09T07:58:48.004Z,1.38
2024-05-09T08:01:18.321Z,1.25
2024-05-09T08:03:46.645Z,1.40
2024-05-09T08:06:17.027Z,1.40
2024-05-09T08:08:46.523Z,1.40
2024-05-09T08:11:19.782Z,1.30
2024-05-09T08:13:47.503Z,1.27
2024-05-09T08:16:17.932Z,1.20
2024-05-09T08:18:45.627Z,1.38
2024-05-09T08:21:16.085Z,1.30
2024-05-09T08:23:43.788Z,1.35
2024-05-09T08:26:14.036Z,1.50
2024-05-09T08:28:44.386Z,1.20
2024-05-09T08:31:14.729Z,1.30
2024-05-09T08:33:44.832Z,1.45
2024-05-09T08:36:15.174Z,1.30
2024-05-09T08:38:42.699Z,1.20
2024-05-09T08:41:14.916Z,1.20
2024-05-09T08:43:45.290Z,1.20
2024-05-09T08:46:15.904Z,1.42
2024-05-09T08:48:44.846Z,1.23
2024-05-09T08:51:15.372Z,1.40
2024-05-09T08:53:43.021Z,1.17
2024-05-09T08:56:14.838Z,1.30
2024-05-09T08:58:42.799Z,1.40
2024-05-09T09:01:16.126Z,1.25
2024-05-09T09:03:44.549Z,1.50
2024-05-09T09:06:15.748Z,1.50
2024-05-09T09:08:43.906Z,1.40
2024-05-09T09:11:14.326Z,1.40
2024-05-09T09:13:42.016Z,1.30
2024-05-09T09:16:16.334Z,1.30
2024-05-09T09:18:46.067Z,1.48
2024-05-09T09:21:17.161Z,1.48
2024-05-09T09:23:44.854Z,1.30
2024-05-09T09:26:19.278Z,1.35
2024-05-09T09:28:47.888Z,1.33
2024-05-09T09:31:23.154Z,1.25
2024-05-09T09:33:50.971Z,1.38
2024-05-09T09:36:21.329Z,1.30
2024-05-09T09:38:49.213Z,1.40
2024-05-09T09:41:22.310Z,1.48
2024-05-09T09:43:49.974Z,1.30
2024-05-09T09:46:22.948Z,1.30
2024-05-09T09:48:51.245Z,1.20
2024-05-09T09:51:22.165Z,1.30
2024-05-09T09:53:51.428Z,1.15
2024-05-09T09:56:22.170Z,1.40
2024-05-09T09:58:49.811Z,1.10
2024-05-09T10:01:20.223Z,1.10
2024-05-09T10:03:50.797Z,1.33
2024-05-09T10:06:21.526Z,1.35
2024-05-09T10:08:49.757Z,1.30
2024-05-09T10:11:22.954Z,1.10
2024-05-09T10:13:53.618Z,1.30
2024-05-09T10:16:24.908Z,1.30
2024-05-09T10:18:55.405Z,1.50
2024-05-09T10:21:25.702Z,1.30
2024-05-09T10:23:59.872Z,1.30
2024-05-09T10:26:34.676Z,1.50
2024-05-09T10:29:03.423Z,1.30
2024-05-09T10:31:33.893Z,1.70
2024-05-09T10:34:06.245Z,1.70
2024-05-09T10:36:37.019Z,1.50
2024-05-09T10:39:05.602Z,1.40
2024-05-09T10:41:36.614Z,1.40
2024-05-09T10:44:04.204Z,1.48
2024-05-09T10:46:34.432Z,1.40
2024-05-09T10:49:07.250Z,1.60
2024-05-09T10:51:38.413Z,1.35
2024-05-09T10:54:08.032Z,1.40
2024-05-09T10:56:38.210Z,1.30
2024-05-09T10:59:06.082Z,1.40
2024-05-09T11:01:36.855Z,1.45
2024-05-09T11:04:09.381Z,1.50
2024-05-09T11:06:39.837Z,1.40
2024-05-09T11:09:07.994Z,1.33
2024-05-09T11:11:38.253Z,1.40
2024-05-09T11:14:14.780Z,1.60
2024-05-09T11:16:45.007Z,1.35
2024-05-09T11:19:15.554Z,1.52
2024-05-09T11:21:46.052Z,1.50
2024-05-09T11:24:13.702Z,1.40
2024-05-09T11:26:43.972Z,1.50
2024-05-09T11:29:11.672Z,1.45
2024-05-09T11:31:49.429Z,1.48
2024-05-09T11:34:20.011Z,1.30
2024-05-09T11:36:50.486Z,1.60
2024-05-09T11:39:18.178Z,1.40
2024-05-09T11:41:48.696Z,1.40
2024-05-09T11:44:16.389Z,1.50
2024-05-09T11:46:46.652Z,1.25
2024-05-09T11:49:14.488Z,1.58
2024-05-09T11:51:47.462Z,1.50
2024-05-09T11:54:16.111Z,1.40
2024-05-09T11:56:46.539Z,1.35
2024-05-09T11:59:14.101Z,1.40
2024-05-09T12:01:44.346Z,1.30
2024-05-09T12:04:12.424Z,1.30
2024-05-09T12:06:43.043Z,1.20
2024-05-09T12:09:13.428Z,1.30
2024-05-09T12:11:43.673Z,1.20
2024-05-09T12:14:11.334Z,1.20
2024-05-09T12:16:41.703Z,1.30
2024-05-09T12:19:09.615Z,1.20
2024-05-09T12:21:40.089Z,1.20
2024-05-09T12:24:07.752Z,1.20
2024-05-09T12:26:41.042Z,1.15
2024-05-09T12:29:08.795Z,1.20
2024-05-09T12:31:39.057Z,1.10
2024-05-09T12:34:06.939Z,1.25
2024-05-09T12:36:37.467Z,1.10
2024-05-09T12:39:06.549Z,1.10
2024-05-09T12:41:37.001Z,1.10
2024-05-09T12:44:07.833Z,1.00
2024-05-09T12:46:38.339Z,1.10
2024-05-09T12:49:06.446Z,1.00
2024-05-09T12:51:36.999Z,0.98
2024-05-09T12:54:04.784Z,1.00
2024-05-09T12:56:36.133Z,1.00
2024-05-09T12:59:03.900Z,1.00
2024-05-09T13:01:37.047Z,1.15
2024-05-09T13:04:05.276Z,1.00
2024-05-09T13:06:35.660Z,0.98
2024-05-09T13:09:03.339Z,0.95
2024-05-09T13:11:33.868Z,0.90
2024-05-09T13:14:01.638Z,1.00
2024-05-09T13:16:32.357Z,0.90
2024-05-09T13:19:02.674Z,0.90
2024-05-09T13:21:32.915Z,1.02
2024-05-09T13:24:00.655Z,1.00
2024-05-09T13:26:31.015Z,1.00
2024-05-09T13:28:58.607Z,1.00
2024-05-09T13:31:28.866Z,0.95
2024-05-09T13:33:56.688Z,1.10
2024-05-09T13:36:29.745Z,0.90
2024-05-09T13:38:57.616Z,0.95
2024-05-09T13:41:28.913Z,1.00
2024-05-09T13:43:56.635Z,1.10
2024-05-09T13:46:26.936Z,0.85
2024-05-09T13:48:54.701Z,0.88
2024-05-09T13:51:24.939Z,1.05
2024-05-09T13:53:56.788Z,0.85
2024-05-09T13:56:27.402Z,1.00
2024-05-09T13:58:55.147Z,1.10
2024-05-09T14:01:25.493Z,1.10
2024-05-09T14:03:53.523Z,0.90
2024-05-09T14:06:24.073Z,1.10
2024-05-09T14:08:55.180Z,1.10
2024-05-09T14:11:28.152Z,0.85
2024-05-09T14:13:56.030Z,0.90
2024-05-09T14:16:26.376Z,1.00
2024-05-09T14:18:54.393Z,1.20
2024-05-09T14:21:24.658Z,1.10
2024-05-09T14:23:52.207Z,1.17
2024-05-09T14:26:22.397Z,1.20
2024-05-09T14:28:52.737Z,1.30
2024-05-09T14:31:23.711Z,1.00
2024-05-09T14:33:51.542Z,1.10
2024-05-09T14:36:21.847Z,1.00
2024-05-09T14:38:49.428Z,1.20
2024-05-09T14:41:19.762Z,1.00
2024-05-09T14:43:47.405Z,1.02
2024-05-09T14:46:20.450Z,1.00
2024-05-09T14:48:48.382Z,1.27
2024-05-09T14:51:20.757Z,1.30
2024-05-09T14:53:48.364Z,1.30
2024-05-09T14:56:18.653Z,1.13
2024-05-09T14:58:46.257Z,1.10
2024-05-09T15:01:16.988Z,1.30
2024-05-09T15:03:47.284Z,1.15
2024-05-09T15:06:17.742Z,0.93
2024-05-09T15:08:46.252Z,0.95
2024-05-09T15:11:16.477Z,1.25
2024-05-09T15:13:44.254Z,1.10
2024-05-09T15:16:14.591Z,1.15
2024-05-09T15:18:43.774Z,1.00
2024-05-09T15:21:16.910Z,1.05
2024-05-09T15:23:44.471Z,1.00
2024-05-09T15:26:14.722Z,1.13
2024-05-09T15:28:42.540Z,0.90
2024-05-09T15:31:12.786Z,1.02
2024-05-09T15:33:41.795Z,1.00
2024-05-09T15:36:12.130Z,1.30
2024-05-09T15:38:42.427Z,1.10
2024-05-09T15:41:12.714Z,1.30
2024-05-09T15:43:40.365Z,1.10
2024-05-09T15:46:10.935Z,1.17
2024-05-09T15:48:41.136Z,1.10
2024-05-09T15:51:12.107Z,1.30
2024-05-09T15:53:42.310Z,1.10
2024-05-09T15:56:13.040Z,1.10
2024-05-09T15:58:40.807Z,1.20
2024-05-09T16:01:12.540Z,1.15
2024-05-09T16:03:40.397Z,1.20
2024-05-09T16:06:10.692Z,1.40
2024-05-09T16:08:38.457Z,1.40
2024-05-09T16:11:11.502Z,1.27
2024-05-09T16:13:39.170Z,1.58
2024-05-09T16:16:09.632Z,1.30
2024-05-09T16:18:37.349Z,1.42
2024-05-09T16:21:07.771Z,1.10
2024-05-09T16:23:39.306Z,1.30
2024-05-09T16:26:12.168Z,1.00
2024-05-09T16:28:39.805Z,1.27
2024-05-09T16:31:10.045Z,1.00
2024-05-09T16:33:38.010Z,1.27
2024-05-09T16:36:08.670Z,1.25
2024-05-09T16:38:36.379Z,1.40
2024-05-09T16:41:06.663Z,1.35
2024-05-09T16:43:36.957Z,1.33
2024-05-09T16:46:07.263Z,1.20
2024-05-09T16:48:35.178Z,1.40
2024-05-09T16:51:05.526Z,1.40
2024-05-09T16:53:33.132Z,1.52
2024-05-09T16:56:03.436Z,2.05
2024-05-09T16:58:31.056Z,1.50
2024-05-09T17:01:04.290Z,1.23
2024-05-09T17:03:32.051Z,1.33
2024-05-09T17:06:03.407Z,1.25
2024-05-09T17:08:31.608Z,1.30
2024-05-09T17:11:02.234Z,1.38
2024-05-09T17:13:29.964Z,1.30
2024-05-09T17:16:00.308Z,1.27
2024-05-09T17:18:33.692Z,1.23
2024-05-09T17:21:01.613Z,1.20
2024-05-09T17:23:34.783Z,1.48
2024-05-09T17:26:02.940Z,1.50
2024-05-09T17:28:33.524Z,1.40
2024-05-09T17:31:01.098Z,1.40
2024-05-09T17:33:34.200Z,1.40
2024-05-09T17:36:01.946Z,1.63
2024-05-09T17:38:32.361Z,1.60
2024-05-09T17:41:00.034Z,1.98
2024-05-09T17:43:30.524Z,2.10
2024-05-09T17:45:58.600Z,1.40
2024-05-09T17:48:28.912Z,1.63
2024-05-09T17:51:01.840Z,1.70
2024-05-09T17:53:29.380Z,1.48
2024-05-09T17:56:00.535Z,1.40
2024-05-09T17:58:28.406Z,1.40
2024-05-09T18:00:58.835Z,1.40
2024-05-09T18:03:26.961Z,1.70
2024-05-09T18:05:57.506Z,1.60
2024-05-09T18:08:27.853Z,1.80
2024-05-09T18:10:58.076Z,1.60
2024-05-09T18:13:26.408Z,1.88
2024-05-09T18:15:56.629Z,1.67
2024-05-09T18:18:24.337Z,1.73
2024-05-09T18:20:54.763Z,1.33
2024-05-09T18:23:22.702Z,1.40
2024-05-09T18:25:57.045Z,1.38
2024-05-09T18:28:24.802Z,1.20
2024-05-09T18:30:55.279Z,1.60
2024-05-09T18:33:24.581Z,1.50
2024-05-09T18:35:55.118Z,1.40
2024-05-09T18:38:26.866Z,1.13
2024-05-09T18:41:00.135Z,1.30
2024-05-09T18:43:34.833Z,1.40
2024-05-09T18:46:08.859Z,1.20
2024-05-09T18:48:36.686Z,1.30
2024-05-09T18:51:07.874Z,1.27
2024-05-09T18:53:35.480Z,1.38
2024-05-09T18:56:08.782Z,1.20
2024-05-09T18:58:36.556Z,1.35
2024-05-09T19:01:07.247Z,1.35
2024-05-09T19:03:35.417Z,1.38
2024-05-09T19:06:06.185Z,1.35
2024-05-09T19:08:34.022Z,1.52
2024-05-09T19:11:04.685Z,1.40
2024-05-09T19:13:35.014Z,1.33
2024-05-09T19:16:05.706Z,1.40
2024-05-09T19:18:33.443Z,1.48
2024-05-09T19:21:03.877Z,1.33
2024-05-09T19:23:35.289Z,1.70
2024-05-09T19:26:08.639Z,1.50
2024-05-09T19:28:40.503Z,1.30
2024-05-09T19:31:10.985Z,1.58
2024-05-09T19:33:38.776Z,1.40
2024-05-09T19:36:09.589Z,1.30
2024-05-09T19:38:37.468Z,1.30
2024-05-09T19:41:07.739Z,1.80
2024-05-09T19:43:36.246Z,1.50
2024-05-09T19:46:09.290Z,1.73
2024-05-09T19:48:37.127Z,1.60
2024-05-09T19:51:07.648Z,1.38
2024-05-09T19:53:35.285Z,1.50
2024-05-09T19:56:05.474Z,1.60
2024-05-09T19:58:33.160Z,1.30
2024-05-09T20:01:03.632Z,1.80
2024-05-09T20:03:36.973Z,1.63
2024-05-09T20:06:07.760Z,1.40
2024-05-09T20:08:35.842Z,1.70
2024-05-09T20:11:06.042Z,1.60
2024-05-09T20:13:33.719Z,1.60
2024-05-09T20:16:04.055Z,1.55
2024-05-09T20:18:34.535Z,1.65
2024-05-09T20:21:05.515Z,1.40
2024-05-09T20:23:33.155Z,1.70
2024-05-09T20:26:03.611Z,1.50
2024-05-09T20:28:31.320Z,1.60
2024-05-09T20:31:01.781Z,1.70
2024-05-09T20:33:29.421Z,1.60
2024-05-09T20:36:02.761Z,1.50
2024-05-09T20:38:30.562Z,1.50
2024-05-09T20:41:00.900Z,1.40
2024-05-09T20:43:28.555Z,1.58
2024-05-09T20:45:58.892Z,1.63
2024-05-09T20:48:26.689Z,1.58
2024-05-09T20:50:57.000Z,1.52
2024-05-09T20:53:27.206Z,1.80
2024-05-09T20:55:57.471Z,1.80
2024-05-09T20:58:25.298Z,1.70
2024-05-09T21:00:55.708Z,1.60
2024-05-09T21:03:23.454Z,1.98
2024-05-09T21:05:54.214Z,1.40
2024-05-09T21:08:22.790Z,1.75
2024-05-09T21:10:57.023Z,1.50
2024-05-09T21:13:24.744Z,1.60
2024-05-09T21:15:55.226Z,1.40
2024-05-09T21:18:23.236Z,1.67
2024-05-09T21:20:53.521Z,1.75
2024-05-09T21:23:21.308Z,1.60
2024-05-09T21:25:51.572Z,1.40
2024-05-09T21:28:21.824Z,1.63
2024-05-09T21:30:52.420Z,1.60
2024-05-09T21:33:20.148Z,1.40
2024-05-09T21:35:50.504Z,1.50
2024-05-09T21:38:18.116Z,1.60
2024-05-09T21:40:48.712Z,1.30
2024-05-09T21:43:16.583Z,1.50
2024-05-09T21:45:49.744Z,1.70
2024-05-09T21:48:17.513Z,1.60
2024-05-09T21:50:47.678Z,1.60
2024-05-09T21:53:15.287Z,1.58
2024-05-09T21:55:45.576Z,1.70
2024-05-09T21:58:14.016Z,1.73
2024-05-09T22:00:46.451Z,1.67
2024-05-09T22:03:17.405Z,1.83
2024-05-09T22:05:47.741Z,1.70
2024-05-09T22:08:15.340Z,1.85
2024-05-09T22:10:46.070Z,1.63
2024-05-09T22:13:13.910Z,2.13
2024-05-09T22:15:44.197Z,2.00
2024-05-09T22:18:12.215Z,2.17
2024-05-09T22:20:46.773Z,1.70
2024-05-09T22:23:15.383Z,2.10
2024-05-09T22:25:45.695Z,2.20
2024-05-09T22:28:14.268Z,2.00
2024-05-09T22:30:46.321Z,1.90
2024-05-09T22:33:15.487Z,2.03
2024-05-09T22:35:48.569Z,1.80
2024-05-09T22:38:16.230Z,2.20
2024-05-09T22:40:49.245Z,2.20
2024-05-09T22:43:19.381Z,2.30
2024-05-09T22:45:50.307Z,2.45
2024-05-09T22:48:18.416Z,2.42
2024-05-09T22:50:51.323Z,2.28
2024-05-09T22:53:19.048Z,2.40
2024-05-09T22:55:49.255Z,2.47
2024-05-09T22:58:16.893Z,2.40
2024-05-09T23:00:47.333Z,2.33
2024-05-09T23:03:16.624Z,2.20
2024-05-09T23:05:47.524Z,2.20
2024-05-09T23:08:17.781Z,1.95
2024-05-09T23:10:48.114Z,2.00
2024-05-09T23:13:15.909Z,2.00
2024-05-09T23:15:46.157Z,2.10
2024-05-09T23:18:13.830Z,1.77
2024-05-09T23:20:44.204Z,1.83
2024-05-09T23:23:12.324Z,2.17
2024-05-09T23:25:45.222Z,1.65
2024-05-09T23:28:13.044Z,2.10
2024-05-09T23:30:43.482Z,1.90
2024-05-09T23:33:14.255Z,2.25
2024-05-09T23:35:45.171Z,2.00
2024-05-09T23:38:15.717Z,1.83
2024-05-09T23:40:45.988Z,1.90
2024-05-09T23:43:16.439Z,1.77
2024-05-09T23:45:44.204Z,2.00
2024-05-09T23:48:14.741Z,1.92
2024-05-09T23:50:42.588Z,1.90
2024-05-09T23:53:14.458Z,1.63
2024-05-09T23:55:42.306Z,1.60
2024-05-09T23:58:15.277Z,1.70
